createdAt,value
2022-12-31T00:01:19.607Z,97327.78
2022-12-31T00:03:46.102Z,97336.81
2022-12-31T00:06:23.448Z,97342.94
2022-12-31T00:08:50.044Z,97332.56
2022-12-31T00:11:16.595Z,97317.09
2022-12-31T00:13:43.296Z,97317.97
2022-12-31T00:16:12.664Z,97318.91
2022-12-31T00:18:39.423Z,97320.03
2022-12-31T00:21:08.779Z,97320.16
2022-12-31T00:23:35.683Z,97323.13
2022-12-31T00:26:07.315Z,97323.91
2022-12-31T00:28:34.544Z,97328.16
2022-12-31T00:31:14.768Z,97326.03
2022-12-31T00:33:41.277Z,97328.69
2022-12-31T00:36:15.379Z,97331.94
2022-12-31T00:38:42.189Z,97338.13
2022-12-31T00:41:08.753Z,97333.88
2022-12-31T00:43:35.383Z,97345.88
2022-12-31T00:46:02.030Z,97348.84
2022-12-31T00:48:28.644Z,97341.41
2022-12-31T00:50:55.322Z,97338.47
2022-12-31T00:53:22.075Z,97339.31
2022-12-31T00:55:48.594Z,97351.56
2022-12-31T00:58:15.071Z,97372.09
2022-12-31T01:00:41.568Z,97343.59
2022-12-31T01:03:08.134Z,97346.81
2022-12-31T01:05:35.225Z,97332.47
2022-12-31T01:08:01.892Z,97330.59
2022-12-31T01:10:46.969Z,97337.00
2022-12-31T01:13:13.429Z,97331.97
2022-12-31T01:15:39.977Z,97326.13
2022-12-31T01:18:07.151Z,97331.44
2022-12-31T01:20:37.273Z,97323.75
2022-12-31T01:23:04.315Z,97316.84
2022-12-31T01:25:30.768Z,97316.31
2022-12-31T01:27:57.217Z,97322.72
2022-12-31T01:30:23.724Z,97313.44
2022-12-31T01:32:50.180Z,97309.19
2022-12-31T01:35:16.696Z,97324.38
2022-12-31T01:37:43.165Z,97323.09
2022-12-31T01:40:09.892Z,97335.06
2022-12-31T01:42:36.356Z,97337.72
2022-12-31T01:45:02.847Z,97342.56
2022-12-31T01:47:35.891Z,97342.56
2022-12-31T01:50:06.507Z,97339.66
2022-12-31T01:52:35.426Z,97346.06
2022-12-31T01:55:40.650Z,97342.63
2022-12-31T01:58:19.210Z,97349.78
2022-12-31T02:00:45.659Z,97348.50
2022-12-31T02:03:12.307Z,97341.59
2022-12-31T02:05:51.812Z,97348.25
2022-12-31T02:08:18.266Z,97332.34
2022-12-31T02:10:44.716Z,97342.44
2022-12-31T02:13:11.179Z,97324.31
2022-12-31T02:15:56.008Z,97334.16
2022-12-31T02:18:36.978Z,97325.38
2022-12-31T02:21:27.388Z,97317.41
2022-12-31T02:24:07.016Z,97319.56
2022-12-31T02:26:50.334Z,97305.72
2022-12-31T02:29:23.658Z,97300.41
2022-12-31T02:32:02.878Z,97297.75
2022-12-31T02:34:41.561Z,97270.91
2022-12-31T02:37:09.671Z,97278.09
2022-12-31T02:39:36.127Z,97287.16
2022-12-31T02:42:02.610Z,97277.59
2022-12-31T02:44:33.543Z,97266.44
2022-12-31T02:47:32.576Z,97264.38
2022-12-31T02:50:05.936Z,97277.13
2022-12-31T02:52:56.086Z,97261.19
2022-12-31T02:55:43.798Z,97261.19
2022-12-31T02:58:14.411Z,97273.19
2022-12-31T03:01:05.332Z,97265.72
2022-12-31T03:03:31.845Z,97259.69
2022-12-31T03:05:58.351Z,97257.81
2022-12-31T03:08:26.886Z,97271.59
2022-12-31T03:10:53.364Z,97248.75
2022-12-31T03:13:19.821Z,97250.63
2022-12-31T03:15:46.275Z,97241.06
2022-12-31T03:18:16.878Z,97247.97
2022-12-31T03:21:07.028Z,97246.66
2022-12-31T03:23:40.025Z,97237.59
2022-12-31T03:26:13.052Z,97238.69
2022-12-31T03:28:41.426Z,97243.19
2022-12-31T03:31:08.218Z,97243.47
2022-12-31T03:33:36.336Z,97229.41
2022-12-31T03:36:04.239Z,97240.31
2022-12-31T03:38:30.696Z,97235.78
2022-12-31T03:40:57.159Z,97248.56
2022-12-31T03:43:23.631Z,97237.44
2022-12-31T03:45:51.670Z,97226.78
2022-12-31T03:48:18.346Z,97243.81
2022-12-31T03:50:44.884Z,97225.47
2022-12-31T03:53:11.402Z,97218.59
2022-12-31T03:55:37.857Z,97221.25
2022-12-31T03:58:04.328Z,97213.56
2022-12-31T04:00:30.781Z,97217.28
2022-12-31T04:02:57.575Z,97218.09
2022-12-31T04:05:24.175Z,97211.19
2022-12-31T04:07:52.131Z,97219.16
2022-12-31T04:10:18.935Z,97213.31
2022-12-31T04:12:45.546Z,97219.41
2022-12-31T04:15:16.391Z,97213.03
2022-12-31T04:17:42.836Z,97206.91
2022-12-31T04:20:09.824Z,97215.19
2022-12-31T04:22:36.303Z,97212.53
2022-12-31T04:25:02.776Z,97203.22
2022-12-31T04:27:29.230Z,97200.56
2022-12-31T04:29:55.939Z,97200.56
2022-12-31T04:32:22.421Z,97195.25
2022-12-31T04:34:48.890Z,97199.78
2022-12-31T04:37:15.388Z,97210.41
2022-12-31T04:39:41.840Z,97200.56
2022-12-31T04:42:08.296Z,97213.06
2022-12-31T04:44:35.104Z,97199.78
2022-12-31T04:47:01.795Z,97191.03
2022-12-31T04:49:28.335Z,97203.53
2022-12-31T04:51:55.031Z,97200.88
2022-12-31T04:54:21.504Z,97211.78
2022-12-31T04:56:48.213Z,97209.41
2022-12-31T04:59:14.673Z,97205.16
2022-12-31T05:01:41.252Z,97196.41
2022-12-31T05:04:07.983Z,97229.09
2022-12-31T05:06:34.519Z,97216.88
2022-12-31T05:09:01.212Z,97224.06
2022-12-31T05:11:27.675Z,97224.34
2022-12-31T05:13:54.135Z,97236.56
2022-12-31T05:16:20.656Z,97240.28
2022-12-31T05:18:47.187Z,97244.78
2022-12-31T05:21:17.553Z,97253.84
2022-12-31T05:23:44.022Z,97248.81
2022-12-31T05:26:10.472Z,97274.31
2022-12-31T05:28:36.945Z,97262.13
2022-12-31T05:31:03.464Z,97270.09
2022-12-31T05:33:30.334Z,97280.72
2022-12-31T05:35:58.629Z,97272.25
2022-12-31T05:38:25.533Z,97274.91
2022-12-31T05:41:02.232Z,97268.56
2022-12-31T05:43:28.707Z,97281.56
2022-12-31T05:45:55.259Z,97272.78
2022-12-31T05:48:21.743Z,97253.41
2022-12-31T05:50:49.415Z,97269.06
2022-12-31T05:53:15.892Z,97262.94
2022-12-31T05:55:42.455Z,97265.59
2022-12-31T05:58:09.234Z,97260.59
2022-12-31T06:00:35.707Z,97272.00
2022-12-31T06:03:02.318Z,97254.97
2022-12-31T06:05:28.903Z,97269.53
2022-12-31T06:07:55.359Z,97268.06
2022-12-31T06:10:21.824Z,97263.50
2022-12-31T06:12:48.491Z,97275.16
2022-12-31T06:15:14.978Z,97258.34
2022-12-31T06:17:41.430Z,97281.44
2022-12-31T06:20:12.813Z,97263.84
2022-12-31T06:22:39.828Z,97237.25
2022-12-31T06:25:06.699Z,97273.69
2022-12-31T06:27:33.141Z,97285.66
2022-12-31T06:29:59.633Z,97259.31
2022-12-31T06:32:26.392Z,97265.41
2022-12-31T06:34:52.896Z,97266.22
2022-12-31T06:37:19.347Z,97260.91
2022-12-31T06:39:45.800Z,97261.97
2022-12-31T06:42:12.259Z,97256.09
2022-12-31T06:44:38.748Z,97274.88
2022-12-31T06:47:05.288Z,97257.28
2022-12-31T06:49:31.739Z,97257.72
2022-12-31T06:51:58.196Z,97274.22
2022-12-31T06:54:24.696Z,97273.91
2022-12-31T06:56:51.345Z,97281.59
2022-12-31T06:59:28.228Z,97269.16
2022-12-31T07:02:12.262Z,97277.38
2022-12-31T07:05:01.104Z,97275.25
2022-12-31T07:07:54.748Z,97271.50
2022-12-31T07:10:27.324Z,97286.66
2022-12-31T07:13:05.826Z,97265.63
2022-12-31T07:15:47.990Z,97279.47
2022-12-31T07:18:25.539Z,97271.50
2022-12-31T07:20:52.117Z,97282.94
2022-12-31T07:23:18.834Z,97284.81
2022-12-31T07:25:52.026Z,97284.56
2022-12-31T07:28:36.640Z,97294.72
2022-12-31T07:31:08.022Z,97297.38
2022-12-31T07:33:46.465Z,97304.03
2022-12-31T07:36:38.690Z,97304.34
2022-12-31T07:39:12.927Z,97317.13
2022-12-31T07:41:51.497Z,97337.09
2022-12-31T07:44:57.097Z,97322.22
2022-12-31T07:47:27.618Z,97329.34
2022-12-31T07:49:54.727Z,97340.69
2022-12-31T07:52:21.460Z,97343.78
2022-12-31T07:54:47.964Z,97361.56
2022-12-31T07:57:15.968Z,97356.72
2022-12-31T07:59:42.350Z,97362.84
2022-12-31T08:02:21.717Z,97349.75
2022-12-31T08:05:00.765Z,97350.78
2022-12-31T08:07:50.941Z,97376.25
2022-12-31T08:10:35.575Z,97374.63
2022-12-31T08:13:02.905Z,97377.72
2022-12-31T08:15:30.750Z,97394.50
2022-12-31T08:17:57.666Z,97384.41
2022-12-31T08:20:24.232Z,97408.84
2022-12-31T08:23:24.610Z,97399.28
2022-12-31T08:26:04.421Z,97388.06
2022-12-31T08:28:46.776Z,97396.84
2022-12-31T08:31:28.814Z,97413.91
2022-12-31T08:33:58.416Z,97431.25
2022-12-31T08:36:52.554Z,97430.97
2022-12-31T08:39:37.354Z,97430.47
2022-12-31T08:42:04.981Z,97431.25
2022-12-31T08:44:39.534Z,97423.56
2022-12-31T08:47:35.455Z,97427.81
2022-12-31T08:50:05.207Z,97423.06
2022-12-31T08:52:31.834Z,97422.50
2022-12-31T08:54:59.017Z,97424.28
2022-12-31T08:57:39.500Z,97420.47
2022-12-31T09:00:09.919Z,97431.00
2022-12-31T09:02:58.529Z,97435.22
2022-12-31T09:05:42.281Z,97443.22
2022-12-31T09:08:15.457Z,97418.63
2022-12-31T09:10:55.649Z,97417.34
2022-12-31T09:13:24.837Z,97432.88
2022-12-31T09:15:56.931Z,97440.44
2022-12-31T09:18:27.056Z,97443.38
2022-12-31T09:20:56.220Z,97443.38
2022-12-31T09:23:22.829Z,97455.63
2022-12-31T09:26:05.120Z,97451.34
2022-12-31T09:28:37.204Z,97457.47
2022-12-31T09:31:26.570Z,97454.31
2022-12-31T09:34:16.113Z,97456.19
2022-12-31T09:36:49.333Z,97456.97
2022-12-31T09:39:37.944Z,97461.53
2022-12-31T09:42:35.339Z,97465.53
2022-12-31T09:45:22.958Z,97476.47
2022-12-31T09:48:20.337Z,97469.81
2022-12-31T09:51:08.591Z,97457.38
2022-12-31T09:54:11.380Z,97468.28
2022-12-31T09:57:06.886Z,97468.56
2022-12-31T09:59:46.609Z,97474.19
2022-12-31T10:02:52.152Z,97469.34
2022-12-31T10:05:31.383Z,97494.16
2022-12-31T10:08:05.038Z,97481.84
2022-12-31T10:10:41.705Z,97468.88
2022-12-31T10:13:20.047Z,97465.53
2022-12-31T10:16:23.062Z,97465.81
2022-12-31T10:19:12.292Z,97486.13
2022-12-31T10:21:58.996Z,97490.66
2022-12-31T10:24:43.498Z,97480.50
2022-12-31T10:27:21.278Z,97485.56
2022-12-31T10:29:54.881Z,97488.50
2022-12-31T10:32:45.973Z,97497.56
2022-12-31T10:35:31.204Z,97485.91
2022-12-31T10:38:35.301Z,97482.16
2022-12-31T10:41:29.779Z,97496.75
2022-12-31T10:44:25.550Z,97506.56
2022-12-31T10:47:08.088Z,97510.81
2022-12-31T10:50:02.461Z,97499.38
2022-12-31T10:52:39.795Z,97510.31
2022-12-31T10:55:33.078Z,97514.88
2022-12-31T10:58:12.896Z,97511.97
2022-12-31T11:00:46.360Z,97520.25
2022-12-31T11:03:29.356Z,97520.25
2022-12-31T11:06:15.817Z,97518.25
2022-12-31T11:08:49.986Z,97533.13
2022-12-31T11:11:28.816Z,97529.03
2022-12-31T11:14:20.223Z,97533.75
2022-12-31T11:17:04.864Z,97541.69
2022-12-31T11:20:06.150Z,97522.72
2022-12-31T11:22:53.958Z,97530.50
2022-12-31T11:25:30.754Z,97535.56
2022-12-31T11:28:08.967Z,97533.97
2022-12-31T11:31:06.585Z,97543.28
2022-12-31T11:33:51.311Z,97537.16
2022-12-31T11:36:36.911Z,97543.28
2022-12-31T11:39:27.250Z,97544.34
2022-12-31T11:42:18.528Z,97548.09
2022-12-31T11:45:11.143Z,97549.97
2022-12-31T11:48:29.050Z,97538.78
2022-12-31T11:51:07.767Z,97543.81
2022-12-31T11:54:01.258Z,97543.63
2022-12-31T11:56:32.217Z,97540.97
2022-12-31T11:58:59.475Z,97541.44
2022-12-31T12:01:36.355Z,97528.91
2022-12-31T12:04:03.030Z,97535.03
2022-12-31T12:06:31.664Z,97527.56
2022-12-31T12:09:06.222Z,97539.03
2022-12-31T12:11:35.231Z,97533.34
2022-12-31T12:14:02.007Z,97538.91
2022-12-31T12:16:28.620Z,97556.09
2022-12-31T12:19:14.481Z,97544.59
2022-12-31T12:21:45.793Z,97547.97
2022-12-31T12:24:22.994Z,97540.97
2022-12-31T12:26:49.525Z,97539.91
2022-12-31T12:29:24.163Z,97527.34
2022-12-31T12:31:57.255Z,97535.06
2022-12-31T12:34:28.673Z,97560.38
2022-12-31T12:36:55.237Z,97538.75
2022-12-31T12:39:23.533Z,97545.47
2022-12-31T12:42:08.048Z,97535.66
2022-12-31T12:44:35.809Z,97534.06
2022-12-31T12:47:03.341Z,97532.75
2022-12-31T12:49:32.703Z,97551.94
2022-12-31T12:52:26.307Z,97557.56
2022-12-31T12:55:05.131Z,97550.34
2022-12-31T12:57:52.888Z,97541.06
2022-12-31T13:00:38.925Z,97558.13
2022-12-31T13:03:41.736Z,97576.78
2022-12-31T13:06:36.877Z,97588.84
2022-12-31T13:09:22.163Z,97585.09
2022-12-31T13:12:07.262Z,97576.84
2022-12-31T13:15:19.352Z,97574.78
2022-12-31T13:18:13.678Z,97573.75
2022-12-31T13:20:50.393Z,97572.03
2022-12-31T13:23:39.386Z,97576.53
2022-12-31T13:26:17.164Z,97583.31
2022-12-31T13:28:43.832Z,97585.69
2022-12-31T13:31:13.249Z,97595.78
2022-12-31T13:33:43.265Z,97591.47
2022-12-31T13:36:13.708Z,97585.56
2022-12-31T13:38:46.147Z,97569.50
2022-12-31T13:41:19.349Z,97563.63
2022-12-31T13:43:54.681Z,97558.38
2022-12-31T13:49:01.914Z,97562.63
2022-12-31T13:51:40.768Z,97580.56
2022-12-31T13:54:18.124Z,97577.63
2022-12-31T13:56:44.635Z,97585.63
2022-12-31T13:59:29.481Z,97599.78
2022-12-31T14:02:07.652Z,97585.91
2022-12-31T14:04:37.227Z,97601.13
2022-12-31T14:07:15.249Z,97597.97
2022-12-31T14:09:42.399Z,97605.19
2022-12-31T14:12:36.661Z,97609.19
2022-12-31T14:15:09.474Z,97622.03
2022-12-31T14:17:49.857Z,97626.59
2022-12-31T14:20:46.914Z,97610.59
2022-12-31T14:23:34.522Z,97606.31
2022-12-31T14:26:40.030Z,97620.44
2022-12-31T14:29:18.955Z,97613.25
2022-12-31T14:31:48.450Z,97626.66
2022-12-31T14:34:49.680Z,97630.63
2022-12-31T14:37:25.071Z,97630.63
2022-12-31T14:40:06.558Z,97648.81
2022-12-31T14:42:38.232Z,97640.47
2022-12-31T14:45:19.911Z,97656.97
2022-12-31T14:47:55.322Z,97674.84
2022-12-31T14:50:29.061Z,97667.72
2022-12-31T14:53:06.169Z,97665.81
2022-12-31T14:55:36.614Z,97674.13
2022-12-31T14:58:27.915Z,97669.59
2022-12-31T15:00:56.968Z,97666.41
2022-12-31T15:08:42.780Z,97683.00
2022-12-31T15:11:34.703Z,97667.28
2022-12-31T15:14:41.899Z,97664.38
2022-12-31T15:17:36.880Z,97658.31
2022-12-31T15:20:33.891Z,97659.41
2022-12-31T15:23:00.360Z,97677.84
2022-12-31T15:25:38.661Z,97648.25
2022-12-31T15:28:21.146Z,97664.03
2022-12-31T15:30:47.822Z,97679.78
2022-12-31T15:33:29.743Z,97675.78
2022-12-31T15:35:57.041Z,97676.56
2022-12-31T15:38:34.205Z,97659.53
2022-12-31T15:41:00.917Z,97679.84
2022-12-31T15:43:29.501Z,97673.47
2022-12-31T15:45:56.022Z,97687.31
2022-12-31T15:48:43.309Z,97669.38
2022-12-31T15:51:16.581Z,97683.34
2022-12-31T15:53:43.984Z,97672.78
2022-12-31T15:56:17.865Z,97692.19
2022-12-31T15:58:44.567Z,97680.94
2022-12-31T16:01:22.713Z,97679.88
2022-12-31T16:03:57.625Z,97700.00
2022-12-31T16:06:24.095Z,97703.41
2022-12-31T16:08:50.634Z,97695.34
2022-12-31T16:11:17.125Z,97700.63
2022-12-31T16:13:49.464Z,97690.78
2022-12-31T16:16:27.695Z,97687.22
2022-12-31T16:18:54.251Z,97698.25
2022-12-31T16:21:32.525Z,97697.06
2022-12-31T16:24:25.105Z,97697.75
2022-12-31T16:26:52.998Z,97700.91
2022-12-31T16:29:19.907Z,97696.34
2022-12-31T16:31:46.866Z,97691.00
2022-12-31T16:34:24.241Z,97689.72
2022-12-31T16:37:05.198Z,97701.91
2022-12-31T16:39:38.245Z,97697.59
2022-12-31T16:42:13.792Z,97708.06
2022-12-31T16:44:40.429Z,97713.53
2022-12-31T16:47:07.820Z,97713.31
2022-12-31T16:49:35.815Z,97717.31
2022-12-31T16:52:07.808Z,97709.78
2022-12-31T16:54:38.322Z,97703.72
2022-12-31T16:57:05.537Z,97704.91
2022-12-31T16:59:40.853Z,97697.28
2022-12-31T17:02:14.889Z,97701.69
2022-12-31T17:04:46.940Z,97697.16
2022-12-31T17:07:26.581Z,97698.94
2022-12-31T17:10:02.243Z,97703.50
2022-12-31T17:12:29.045Z,97694.69
2022-12-31T17:14:55.590Z,97694.47
2022-12-31T17:17:23.890Z,97693.69
2022-12-31T17:19:51.258Z,97689.88
2022-12-31T17:22:35.743Z,97701.53
2022-12-31T17:25:23.553Z,97700.91
2022-12-31T17:27:58.494Z,97696.56
2022-12-31T17:30:27.815Z,97702.13
2022-12-31T17:33:26.170Z,97688.38
2022-12-31T17:36:15.192Z,97697.09
2022-12-31T17:38:41.657Z,97700.00
2022-12-31T17:41:07.943Z,97706.94
2022-12-31T17:43:37.909Z,97701.72
2022-12-31T17:46:14.544Z,97702.88
2022-12-31T17:48:41.184Z,97704.75
2022-12-31T17:51:07.701Z,97708.59
2022-12-31T17:53:34.410Z,97698.50
2022-12-31T17:56:02.642Z,97699.31
2022-12-31T17:58:42.261Z,97700.38
2022-12-31T18:01:09.109Z,97681.72
2022-12-31T18:03:35.763Z,97673.81
2022-12-31T18:06:02.310Z,97682.03
2022-12-31T18:08:28.834Z,97675.91
2022-12-31T18:10:55.350Z,97678.56
2022-12-31T18:13:25.578Z,97682.03
2022-12-31T18:15:52.500Z,97687.19
2022-12-31T18:18:24.726Z,97676.78
2022-12-31T18:20:53.918Z,97667.34
2022-12-31T18:23:22.583Z,97662.97
2022-12-31T18:25:49.069Z,97653.56
2022-12-31T18:28:15.843Z,97670.22
2022-12-31T18:30:42.798Z,97664.47
2022-12-31T18:33:11.450Z,97670.59
2022-12-31T18:36:07.837Z,97667.13
2022-12-31T18:38:24.367Z,97659.28
2022-12-31T18:40:56.268Z,97666.94
2022-12-31T18:43:22.746Z,97663.16
2022-12-31T18:45:49.374Z,97670.78
2022-12-31T18:48:16.199Z,97658.78
2022-12-31T18:50:42.660Z,97656.72
2022-12-31T18:53:16.691Z,97647.88
2022-12-31T18:56:03.218Z,97656.13
2022-12-31T18:58:29.686Z,97663.34
2022-12-31T19:00:56.168Z,97683.59
2022-12-31T19:03:23.653Z,97685.00
2022-12-31T19:05:50.814Z,97679.06
2022-12-31T19:08:18.373Z,97677.88
2022-12-31T19:10:45.016Z,97686.78
2022-12-31T19:13:14.974Z,97682.13
2022-12-31T19:15:46.218Z,97685.19
2022-12-31T19:18:12.828Z,97689.69
2022-12-31T19:20:39.642Z,97678.47
2022-12-31T19:23:06.117Z,97674.81
2022-12-31T19:25:34.106Z,97687.81
2022-12-31T19:28:01.645Z,97696.72
2022-12-31T19:30:29.987Z,97690.97
2022-12-31T19:32:56.569Z,97699.88
2022-12-31T19:35:23.233Z,97685.50
2022-12-31T19:37:50.515Z,97696.53
2022-12-31T19:40:18.820Z,97686.72
2022-12-31T19:42:45.473Z,97699.00
2022-12-31T19:45:15.778Z,97682.16
2022-12-31T19:47:42.308Z,97698.41
2022-12-31T19:50:11.752Z,97684.13
2022-12-31T19:52:38.221Z,97702.56
2022-12-31T19:55:04.949Z,97694.94
2022-12-31T19:57:31.421Z,97702.09
2022-12-31T19:59:57.906Z,97691.38
2022-12-31T20:02:24.723Z,97690.47
2022-12-31T20:04:51.291Z,97698.22
2022-12-31T20:07:22.139Z,97698.91
2022-12-31T20:09:51.701Z,97705.34
2022-12-31T20:12:18.228Z,97710.59
2022-12-31T20:14:44.712Z,97712.00
2022-12-31T20:17:11.212Z,97727.66
2022-12-31T20:19:37.684Z,97712.97
2022-12-31T20:22:04.132Z,97723.00
2022-12-31T20:24:30.601Z,97708.75
2022-12-31T20:26:57.096Z,97720.19
2022-12-31T20:29:23.553Z,97708.22
2022-12-31T20:31:50.005Z,97731.38
2022-12-31T20:34:16.528Z,97714.28
2022-12-31T20:36:42.983Z,97738.50
2022-12-31T20:39:09.696Z,97726.06
2022-12-31T20:41:36.170Z,97727.28
2022-12-31T20:44:02.735Z,97734.06
2022-12-31T20:46:30.120Z,97735.72
2022-12-31T20:48:58.851Z,97738.34
2022-12-31T20:51:25.414Z,97737.00
2022-12-31T20:53:56.477Z,97739.00
2022-12-31T20:56:23.483Z,97745.59
2022-12-31T20:58:49.986Z,97755.50
2022-12-31T21:01:16.707Z,97745.28
2022-12-31T21:06:30.788Z,97749.53
2022-12-31T21:08:58.470Z,97735.56
2022-12-31T21:11:43.595Z,97750.63
2022-12-31T21:14:10.067Z,97761.91
2022-12-31T21:16:36.700Z,97754.25
2022-12-31T21:19:03.317Z,97763.28
2022-12-31T21:21:29.792Z,97772.38
2022-12-31T21:23:56.306Z,97766.63
2022-12-31T21:26:22.787Z,97768.72
2022-12-31T21:28:49.271Z,97778.13
2022-12-31T21:31:15.762Z,97769.84
2022-12-31T21:33:45.834Z,97764.00
2022-12-31T21:36:12.635Z,97780.63
2022-12-31T21:38:39.264Z,97775.09
2022-12-31T21:41:06.643Z,97770.59
2022-12-31T21:43:33.346Z,97781.25
2022-12-31T21:46:01.507Z,97772.69
2022-12-31T21:48:28.062Z,97779.75
2022-12-31T21:50:55.607Z,97782.03
2022-12-31T21:53:26.278Z,97788.31
2022-12-31T21:56:14.645Z,97783.91
2022-12-31T21:58:43.247Z,97785.25
2022-12-31T22:01:48.604Z,97788.56
2022-12-31T22:04:43.204Z,97779.38
2022-12-31T22:07:01.595Z,97787.84
2022-12-31T22:09:28.059Z,97784.50
2022-12-31T22:11:54.563Z,97786.84
2022-12-31T22:14:21.048Z,97786.31
2022-12-31T22:16:47.526Z,97792.50
2022-12-31T22:19:14.095Z,97783.22
2022-12-31T22:21:40.555Z,97800.44
2022-12-31T22:24:07.354Z,97809.66
2022-12-31T22:26:33.849Z,97807.63
2022-12-31T22:29:00.357Z,97806.56
2022-12-31T22:31:29.823Z,97806.25
2022-12-31T22:33:56.461Z,97795.97
2022-12-31T22:36:23.103Z,97820.25
2022-12-31T22:38:50.749Z,97824.91
2022-12-31T22:41:19.383Z,97823.97
2022-12-31T22:43:47.905Z,97836.88
2022-12-31T22:46:21.854Z,97820.59
2022-12-31T22:48:48.248Z,97839.44
2022-12-31T22:51:14.814Z,97836.56
2022-12-31T22:53:41.555Z,97827.66
2022-12-31T22:56:08.465Z,97841.75
2022-12-31T22:58:34.954Z,97843.84
2022-12-31T23:01:04.925Z,97856.34
2022-12-31T23:03:31.790Z,97844.56
2022-12-31T23:05:58.375Z,97850.50
2022-12-31T23:08:24.836Z,97842.03
2022-12-31T23:11:05.531Z,97851.00
2022-12-31T23:13:57.963Z,97848.59
2022-12-31T23:16:43.904Z,97842.19
2022-12-31T23:19:29.129Z,97863.84
2022-12-31T23:22:14.028Z,97851.91
2022-12-31T23:24:40.588Z,97841.94
2022-12-31T23:27:07.352Z,97847.63
2022-12-31T23:29:33.842Z,97847.00
2022-12-31T23:32:00.327Z,97850.25
2022-12-31T23:34:26.857Z,97847.59
2022-12-31T23:36:53.331Z,97847.25
2022-12-31T23:39:19.796Z,97846.50
2022-12-31T23:41:46.251Z,97849.97
2022-12-31T23:44:12.708Z,97836.59
2022-12-31T23:46:39.836Z,97849.97
2022-12-31T23:49:06.406Z,97849.28
2022-12-31T23:51:33.088Z,97845.75
2022-12-31T23:53:59.563Z,97832.78
2022-12-31T23:56:26.080Z,97847.81
2022-12-31T23:58:55.926Z,97836.91
